Time;durP1;ratioP1;P1;durP2;ratioP2;P2;SDS_P1;SDS_P2;PMS_P1;PMS_P2;Temp;Humidity;BMP_temperature;BMP_pressure;BME280_temperature;BME280_humidity;BME280_pressure;Samples;Min_cycle;Max_cycle;Signal;HPM_P1;HPM_P2
2022/08/01 00:01:44;;;;;;;7.88;4.15;;;;;;;19.30;41.37;100072.00;5054400;28;20029;-53
2022/08/01 00:04:09;;;;;;;7.45;4.20;;;;;;;19.29;41.80;100075.75;5053573;28;20029;-51
2022/08/01 00:06:35;;;;;;;4.90;3.65;;;;;;;19.27;41.84;100074.22;5054162;28;20405;-51
2022/08/01 00:09:00;;;;;;;6.35;4.15;;;;;;;19.26;41.83;100064.38;5048154;28;20031;-52
2022/08/01 00:11:26;;;;;;;5.90;4.13;;;;;;;19.19;41.98;100064.22;5034804;28;20457;-54
2022/08/01 00:13:52;;;;;;;10.10;4.15;;;;;;;19.18;42.29;100063.41;5034342;28;20053;-57
2022/08/01 00:16:17;;;;;;;6.18;3.67;;;;;;;19.10;42.38;100055.25;5035257;28;20037;-54
2022/08/01 00:18:43;;;;;;;7.47;3.80;;;;;;;19.04;42.50;100061.38;5054561;28;20099;-53
2022/08/01 00:21:08;;;;;;;6.47;3.30;;;;;;;18.99;42.65;100047.50;5052941;28;20029;-52
2022/08/01 00:23:34;;;;;;;5.78;3.40;;;;;;;19.05;42.88;100052.22;5054422;28;20021;-54
2022/08/01 00:26:00;;;;;;;4.38;2.92;;;;;;;19.06;42.72;100046.66;5054814;28;20029;-67
2022/08/01 00:28:25;;;;;;;7.60;3.55;;;;;;;19.03;42.74;100052.38;5052472;28;20021;-57
2022/08/01 00:30:50;;;;;;;4.75;3.05;;;;;;;18.95;43.15;100046.97;5034303;28;20057;-55
2022/08/01 00:33:16;;;;;;;5.68;3.20;;;;;;;18.96;43.06;100055.97;5048886;28;20052;-51
2022/08/01 00:35:41;;;;;;;5.70;3.15;;;;;;;18.98;42.78;100041.22;5053259;28;20052;-57
2022/08/01 00:38:07;;;;;;;7.25;2.95;;;;;;;19.01;42.97;100051.72;5053053;28;20040;-54
2022/08/01 00:40:32;;;;;;;3.83;2.55;;;;;;;18.88;42.81;100018.84;5034289;28;20469;-54
2022/08/01 00:42:58;;;;;;;5.72;2.80;;;;;;;18.99;42.97;100048.34;5034811;28;20025;-52
2022/08/01 00:45:23;;;;;;;5.50;2.92;;;;;;;18.88;43.12;100052.22;5034238;28;20125;-50
2022/08/01 00:47:49;;;;;;;5.95;3.05;;;;;;;18.90;43.15;100060.22;5033913;28;20037;-49
2022/08/01 00:50:14;;;;;;;8.30;2.80;;;;;;;18.94;43.11;100058.84;5034153;28;20033;-49
2022/08/01 00:52:41;;;;;;;10.90;3.13;;;;;;;18.85;43.18;100059.88;5033930;28;20041;-50
2022/08/01 00:55:09;;;;;;;3.75;2.60;;;;;;;18.80;43.62;100058.50;5033974;28;20041;-49
2022/08/01 00:57:34;;;;;;;5.93;2.70;;;;;;;18.76;43.60;100059.06;5034806;28;20025;-51
2022/08/01 01:00:00;;;;;;;5.55;2.25;;;;;;;18.62;44.27;100061.44;5034324;28;20041;-55
2022/08/01 01:02:25;;;;;;;5.07;2.35;;;;;;;18.58;44.13;100060.06;5033968;28;20021;-52
2022/08/01 01:04:51;;;;;;;4.47;2.28;;;;;;;18.59;44.18;100059.06;5033712;28;20040;-56
2022/08/01 01:07:35;;;;;;;6.55;2.95;;;;;;;18.74;43.90;100061.91;5033687;28;20053;-55
2022/08/01 01:10:09;;;;;;;4.35;2.47;;;;;;;18.55;44.75;100067.69;5034059;28;20048;-55
2022/08/01 01:12:47;;;;;;;6.35;2.88;;;;;;;18.51;44.59;100061.78;5033734;28;20054;-52
2022/08/01 01:15:20;;;;;;;6.15;2.60;;;;;;;18.40;45.43;100049.41;5033884;28;20053;-55
2022/08/01 01:17:51;;;;;;;6.35;3.35;;;;;;;18.30;45.36;100063.13;5041686;28;20065;-50
2022/08/01 01:20:18;;;;;;;8.88;4.45;;;;;;;18.36;45.26;100045.34;5052305;28;20039;-53
2022/08/01 01:22:52;;;;;;;7.30;3.35;;;;;;;18.36;45.56;100048.06;5033582;28;20034;-52
2022/08/01 01:25:36;;;;;;;5.57;3.72;;;;;;;18.24;46.01;100058.41;5033681;28;20034;-50
2022/08/01 01:28:30;;;;;;;6.63;4.28;;;;;;;18.18;46.32;100062.63;5033864;28;20490;-54
2022/08/01 01:30:57;;;;;;;12.88;4.07;;;;;;;18.12;46.48;100060.59;5033095;28;20367;-51
2022/08/01 01:33:28;;;;;;;6.20;3.60;;;;;;;17.91;46.66;100026.66;5033457;28;20103;-48
2022/08/01 01:36:03;;;;;;;6.40;3.63;;;;;;;18.13;46.34;100056.00;5033487;28;20544;-48
2022/08/01 01:38:37;;;;;;;7.57;3.72;;;;;;;18.06;47.02;100053.97;5052068;28;20037;-48
2022/08/01 01:41:04;;;;;;;8.27;3.63;;;;;;;18.05;46.71;100051.41;5052172;28;20041;-50
2022/08/01 01:43:32;;;;;;;7.25;3.20;;;;;;;17.90;46.81;100035.81;5051840;28;20029;-47
2022/08/01 01:45:59;;;;;;;6.25;3.17;;;;;;;18.13;46.58;100059.56;5033262;28;20029;-49
2022/08/01 01:48:26;;;;;;;6.43;2.92;;;;;;;18.12;46.56;100057.88;5031981;28;20123;-50
2022/08/01 01:50:52;;;;;;;5.72;3.22;;;;;;;18.13;46.71;100061.41;5032747;28;20029;-48
2022/08/01 01:53:21;;;;;;;7.82;3.05;;;;;;;18.15;46.37;100052.13;5032998;28;20027;-53
2022/08/01 01:55:49;;;;;;;4.38;2.90;;;;;;;18.08;46.87;100056.50;5033783;28;20037;-52
2022/08/01 01:58:16;;;;;;;5.93;2.70;;;;;;;18.02;47.02;100051.75;5043184;28;20036;-54
2022/08/01 02:00:44;;;;;;;5.68;3.22;;;;;;;18.01;46.67;100050.03;5033135;28;20037;-55
2022/08/01 02:03:11;;;;;;;12.75;3.10;;;;;;;18.01;47.14;100050.03;5031488;28;20037;-52
2022/08/01 02:05:39;;;;;;;4.28;2.60;;;;;;;18.06;47.09;100053.09;5032282;28;20058;-53
2022/08/01 02:08:07;;;;;;;5.43;2.78;;;;;;;18.10;47.10;100062.63;5033005;28;20536;-61
2022/08/01 02:10:34;;;;;;;5.55;2.95;;;;;;;17.97;46.81;100025.16;5032119;28;20071;-52
2022/08/01 02:13:03;;;;;;;5.57;2.80;;;;;;;18.22;46.91;100058.56;5032529;28;20396;-51
2022/08/01 02:15:38;;;;;;;4.90;2.95;;;;;;;18.21;46.68;100045.19;5032578;28;20025;-54
2022/08/01 02:18:05;;;;;;;5.32;3.20;;;;;;;18.29;46.85;100041.59;5032825;28;20057;-53
2022/08/01 02:20:34;;;;;;;4.95;2.80;;;;;;;18.35;46.53;100057.22;5032532;28;20033;-48
2022/08/01 02:23:12;;;;;;;6.60;2.95;;;;;;;18.34;46.14;100031.13;5032617;28;20121;-48
2022/08/01 02:25:52;;;;;;;8.13;3.05;;;;;;;18.42;46.55;100046.53;5032351;28;20021;-49
2022/08/01 02:28:27;;;;;;;8.13;2.97;;;;;;;18.47;46.27;100045.00;5031153;28;20064;-50
2022/08/01 02:30:54;;;;;;;5.10;3.53;;;;;;;18.47;46.76;100049.59;5049354;28;20037;-48
2022/08/01 02:33:24;;;;;;;4.15;2.95;;;;;;;18.54;46.39;100050.59;5052016;28;20119;-48
2022/08/01 02:35:53;;;;;;;6.78;2.90;;;;;;;18.57;46.26;100050.25;5051890;28;20071;-51
2022/08/01 02:38:23;;;;;;;8.60;3.45;;;;;;;18.60;46.62;100052.63;5033460;28;20060;-53
2022/08/01 02:40:52;;;;;;;6.75;3.45;;;;;;;18.60;46.89;100051.78;5032036;28;20083;-51
2022/08/01 02:43:21;;;;;;;8.20;2.83;;;;;;;18.66;46.42;100056.50;5044516;28;20052;-49
2022/08/01 02:45:53;;;;;;;6.35;2.97;;;;;;;18.69;46.17;100039.91;5051626;28;20036;-51
2022/08/01 02:48:22;;;;;;;6.65;3.25;;;;;;;18.80;45.80;100050.38;5051724;28;20499;-53
2022/08/01 02:50:51;;;;;;;5.80;2.92;;;;;;;18.85;45.45;100041.72;5050471;28;20175;-50
2022/08/01 02:53:20;;;;;;;7.53;3.17;;;;;;;18.94;45.45;100050.69;5041230;28;20382;-53
2022/08/01 02:55:47;;;;;;;6.57;2.90;;;;;;;18.96;45.35;100048.66;5032733;28;20037;-54
2022/08/01 02:58:16;;;;;;;9.88;3.33;;;;;;;19.07;45.13;100047.47;5051613;28;20032;-53
2022/08/01 03:00:44;;;;;;;7.63;3.22;;;;;;;19.12;44.69;100052.38;5051482;28;20040;-56
2022/08/01 03:03:10;;;;;;;5.90;3.28;;;;;;;19.14;45.13;100050.34;5042527;28;20033;-54
2022/08/01 03:05:39;;;;;;;4.80;3.00;;;;;;;19.03;44.81;100027.97;5031844;28;20532;-52
2022/08/01 03:08:08;;;;;;;8.43;2.95;;;;;;;19.15;44.14;100033.88;5031623;28;20045;-52
2022/08/01 03:10:36;;;;;;;6.30;3.00;;;;;;;19.36;43.87;100068.59;5031728;28;20033;-53
2022/08/01 03:13:04;;;;;;;6.22;2.90;;;;;;;19.45;43.60;100052.25;5031526;28;20092;-52
2022/08/01 03:15:33;;;;;;;7.82;2.83;;;;;;;19.57;42.70;100061.72;5033704;28;20107;-52
2022/08/01 03:18:00;;;;;;;6.22;3.05;;;;;;;19.56;43.21;100054.59;5051295;28;20429;-51
2022/08/01 03:20:27;;;;;;;9.07;2.78;;;;;;;19.50;42.95;100028.97;5050861;28;20032;-51
2022/08/01 03:22:54;;;;;;;5.00;2.75;;;;;;;19.69;42.75;100054.00;5051291;28;20481;-53
2022/08/01 03:25:21;;;;;;;6.93;3.20;;;;;;;19.86;42.29;100060.19;5051414;28;20039;-52
2022/08/01 03:27:55;;;;;;;5.95;3.20;;;;;;;19.96;42.33;100051.00;5047938;28;20044;-54
2022/08/01 03:30:22;;;;;;;9.82;2.53;;;;;;;19.87;41.85;100032.00;5031317;28;20038;-52
2022/08/01 03:32:48;;;;;;;4.25;2.90;;;;;;;20.11;41.36;100051.91;5030116;28;20385;-53
2022/08/01 03:35:13;;;;;;;4.63;2.97;;;;;;;20.22;41.53;100047.91;5035716;28;20087;-49
2022/08/01 03:37:48;;;;;;;4.57;2.97;;;;;;;20.43;41.38;100044.50;5051333;28;20424;-54
2022/08/01 03:40:21;;;;;;;6.63;3.22;;;;;;;20.74;40.71;100059.88;5036200;28;20496;-55
2022/08/01 03:42:50;;;;;;;7.32;3.10;;;;;;;21.26;40.03;100049.16;5031603;28;20072;-49
2022/08/01 03:45:22;;;;;;;4.15;3.00;;;;;;;22.19;37.75;100043.13;5031098;28;20037;-52
2022/08/01 03:47:52;;;;;;;8.93;3.50;;;;;;;23.18;35.84;100034.22;5031113;28;20049;-49
2022/08/01 03:50:21;;;;;;;7.00;4.00;;;;;;;24.25;33.72;100032.91;5031068;28;20108;-52
2022/08/01 03:52:48;;;;;;;5.35;3.28;;;;;;;25.03;31.97;100034.16;5047722;28;20068;-56
2022/08/01 03:55:16;;;;;;;6.47;3.67;;;;;;;25.76;31.26;100033.06;5041036;28;20486;-53
2022/08/01 03:57:43;;;;;;;4.78;3.55;;;;;;;26.65;29.64;100036.88;5031037;28;20491;-63
2022/08/01 04:00:09;;;;;;;6.25;3.60;;;;;;;27.51;28.25;100030.72;5031117;28;20025;-54
2022/08/01 04:02:36;;;;;;;8.07;4.00;;;;;;;28.44;26.75;100019.41;5037743;28;20025;-51
2022/08/01 04:05:03;;;;;;;4.05;3.25;;;;;;;29.29;25.58;100023.78;5051114;28;20517;-49
2022/08/01 04:07:31;;;;;;;4.72;3.20;;;;;;;29.87;24.46;100010.91;5050084;28;20136;-50
2022/08/01 04:09:57;;;;;;;6.78;3.33;;;;;;;30.57;23.31;100004.34;5050714;28;20085;-52
2022/08/01 04:12:23;;;;;;;5.35;3.40;;;;;;;31.28;21.95;100019.50;5048967;28;20397;-58
2022/08/01 04:14:49;;;;;;;7.13;2.92;;;;;;;31.63;21.89;100016.31;5050504;28;20446;-53
2022/08/01 04:17:17;;;;;;;5.57;3.22;;;;;;;32.38;21.24;100017.63;5050734;28;20033;-55
2022/08/01 04:19:43;;;;;;;6.80;3.33;;;;;;;33.33;20.27;100021.53;5050730;28;20063;-64
2022/08/01 04:22:11;;;;;;;7.30;3.88;;;;;;;34.27;18.94;100032.88;5050976;28;20021;-53
2022/08/01 04:24:37;;;;;;;8.50;4.00;;;;;;;34.55;18.45;100025.91;5050795;28;20036;-55
2022/08/01 04:27:09;;;;;;;6.80;4.68;;;;;;;35.12;17.44;100023.03;5033154;28;20022;-51
2022/08/01 04:29:36;;;;;;;6.20;4.50;;;;;;;35.58;17.47;100022.00;5030385;28;20452;-49
2022/08/01 04:32:02;;;;;;;8.25;4.82;;;;;;;35.68;16.97;100023.06;5034988;28;20086;-53
2022/08/01 04:34:31;;;;;;;5.22;4.22;;;;;;;36.56;16.48;100031.66;5052335;28;20085;-51
2022/08/01 04:36:58;;;;;;;7.07;4.40;;;;;;;37.30;15.72;100032.53;5054034;28;20508;-52
2022/08/01 04:39:28;;;;;;;6.10;4.35;;;;;;;37.75;14.90;100007.91;5054323;28;20552;-50
2022/08/01 04:41:57;;;;;;;5.80;4.43;;;;;;;38.62;14.76;100040.34;5054214;28;20020;-55
2022/08/01 04:44:24;;;;;;;5.63;3.90;;;;;;;39.19;13.80;100033.66;5052558;28;20037;-48
2022/08/01 04:46:54;;;;;;;6.28;3.40;;;;;;;39.64;13.34;100040.59;5054177;28;20036;-50
2022/08/01 04:49:20;;;;;;;5.40;3.38;;;;;;;40.28;12.60;100032.06;5045163;28;20048;-53
2022/08/01 04:51:51;;;;;;;7.65;4.38;;;;;;;40.84;12.56;100031.72;5040580;28;20025;-51
2022/08/01 04:54:16;;;;;;;6.60;3.95;;;;;;;40.89;12.13;100028.81;5053798;28;20028;-56
2022/08/01 04:56:42;;;;;;;3.85;3.45;;;;;;;40.94;12.11;100029.81;5054363;28;20044;-53
2022/08/01 05:01:51;;;;;;;5.65;3.58;;;;;;;40.86;11.68;100040.66;5046221;28;20045;-55
2022/08/01 05:04:17;;;;;;;6.28;2.90;;;;;;;40.97;11.79;100038.38;5033843;28;20069;-57
2022/08/01 05:06:42;;;;;;;5.25;3.22;;;;;;;41.22;11.59;100041.63;5039551;28;20045;-55
2022/08/01 05:09:08;;;;;;;4.93;3.95;;;;;;;40.71;12.04;100033.50;5044658;28;20125;-52
2022/08/01 05:11:33;;;;;;;4.82;3.60;;;;;;;41.25;11.92;100040.16;5034491;28;20037;-54
2022/08/01 05:13:59;;;;;;;4.50;3.30;;;;;;;41.81;11.53;100033.97;5033589;28;20492;-52
2022/08/01 05:16:24;;;;;;;5.38;3.25;;;;;;;42.59;10.77;100035.06;5034715;28;20044;-52
2022/08/01 05:18:49;;;;;;;8.70;3.72;;;;;;;43.49;10.11;100029.53;5033950;28;20040;-55
2022/08/01 05:21:15;;;;;;;6.63;3.55;;;;;;;43.77;10.11;100040.28;5040285;28;20032;-55
2022/08/01 05:23:40;;;;;;;5.25;3.53;;;;;;;43.31;10.45;100046.53;5053227;28;20090;-54
2022/08/01 05:26:06;;;;;;;7.35;3.33;;;;;;;43.03;10.57;100040.53;5044517;28;20044;-53
2022/08/01 05:28:31;;;;;;;4.88;3.10;;;;;;;43.22;10.14;100023.22;5052690;28;20033;-61
2022/08/01 05:30:57;;;;;;;5.25;2.88;;;;;;;43.79;9.77;100026.66;5053504;28;20036;-55
2022/08/01 05:33:22;;;;;;;4.30;1.88;;;;;;;44.08;9.26;100033.34;5052871;28;20225;-54
2022/08/01 05:35:48;;;;;;;6.38;2.08;;;;;;;44.39;9.05;100032.09;5039999;28;20048;-57
2022/08/01 05:38:13;;;;;;;5.40;2.35;;;;;;;44.90;8.84;100025.34;5033522;28;20104;-58
2022/08/01 05:40:39;;;;;;;3.45;2.28;;;;;;;45.34;8.58;100021.94;5041740;28;20025;-50
2022/08/01 05:43:04;;;;;;;3.60;2.60;;;;;;;44.89;8.69;100035.00;5041462;28;20037;-59
2022/08/01 05:45:29;;;;;;;6.47;2.28;;;;;;;44.30;8.99;100014.41;5042728;28;20033;-54
2022/08/01 05:47:55;;;;;;;3.17;2.53;;;;;;;44.58;8.80;100034.38;5042554;28;20087;-57
2022/08/01 05:50:20;;;;;;;3.92;2.80;;;;;;;44.23;8.95;100026.25;5040796;28;20108;-53
2022/08/01 05:52:46;;;;;;;4.15;2.50;;;;;;;44.83;9.01;100019.44;5038885;28;20037;-54
2022/08/01 05:55:11;;;;;;;5.95;2.40;;;;;;;45.13;8.55;100016.41;5032793;28;20079;-55
2022/08/01 05:57:37;;;;;;;4.30;2.65;;;;;;;46.12;7.80;100026.66;5041574;28;20048;-54
2022/08/01 06:00:03;;;;;;;4.45;2.40;;;;;;;46.67;7.63;100035.44;5046387;28;20498;-57
2022/08/01 06:02:30;;;;;;;3.80;2.83;;;;;;;46.51;7.50;100038.25;5039702;28;20070;-58
2022/08/01 06:04:55;;;;;;;5.32;2.88;;;;;;;45.77;7.91;100021.63;5042664;28;20029;-59
2022/08/01 06:07:21;;;;;;;5.88;2.55;;;;;;;45.65;8.04;100030.94;5040978;28;20037;-58
2022/08/01 06:09:46;;;;;;;4.10;2.30;;;;;;;46.01;8.06;100009.34;5042819;28;20029;-58
2022/08/01 06:12:12;;;;;;;5.95;2.83;;;;;;;46.53;7.45;100009.56;5047491;28;20170;-59
2022/08/01 06:14:37;;;;;;;4.88;2.60;;;;;;;47.05;7.27;100026.66;5052219;28;20045;-58
2022/08/01 06:17:03;;;;;;;5.28;2.50;;;;;;;47.90;6.62;100028.97;5052318;28;20025;-59
2022/08/01 06:19:28;;;;;;;5.28;2.63;;;;;;;48.77;6.17;100026.97;5046729;28;20106;-58
2022/08/01 06:21:54;;;;;;;6.28;2.20;;;;;;;49.27;6.09;100022.09;5033865;28;20124;-59
2022/08/01 06:24:19;;;;;;;4.70;2.80;;;;;;;48.58;6.40;100025.81;5032512;28;20485;-59
2022/08/01 06:26:45;;;;;;;6.53;2.42;;;;;;;48.80;6.60;100027.00;5032413;28;20034;-57
2022/08/01 06:29:10;;;;;;;4.78;2.03;;;;;;;49.14;6.47;100012.13;5032267;28;20064;-57
2022/08/01 06:31:35;;;;;;;4.45;2.53;;;;;;;48.78;6.50;100039.97;5031562;28;20091;-65
2022/08/01 06:34:01;;;;;;;4.65;2.53;;;;;;;48.60;6.70;100012.06;5050964;28;20386;-59
2022/08/01 06:36:26;;;;;;;6.60;2.22;;;;;;;49.25;6.35;100024.50;5032045;28;20049;-56
2022/08/01 06:38:52;;;;;;;3.40;2.22;;;;;;;49.06;6.08;100028.22;5035719;28;20454;-57
2022/08/01 06:41:17;;;;;;;4.88;2.00;;;;;;;49.15;6.33;100018.66;5050688;28;20045;-58
2022/08/01 06:43:43;;;;;;;3.65;2.22;;;;;;;49.46;6.11;100031.69;5051878;28;20025;-58
2022/08/01 06:46:08;;;;;;;4.10;2.00;;;;;;;49.70;5.61;100033.22;5051610;28;20116;-57
2022/08/01 06:48:35;;;;;;;4.40;2.15;;;;;;;49.41;6.11;100026.31;5042947;28;20424;-60
2022/08/01 06:51:07;;;;;;;3.58;2.25;;;;;;;49.63;5.71;100033.16;5043361;28;20037;-58
2022/08/01 06:53:37;;;;;;;2.85;2.00;;;;;;;50.06;5.64;100044.22;5050253;28;20477;-57
2022/08/01 06:56:04;;;;;;;4.55;2.13;;;;;;;50.48;5.32;100041.44;5032106;28;20056;-58
2022/08/01 06:58:30;;;;;;;5.80;2.10;;;;;;;50.79;5.21;100047.81;5048365;28;20033;-59
2022/08/01 07:00:56;;;;;;;3.20;2.40;;;;;;;50.25;5.49;100033.91;5051429;28;20029;-59
2022/08/01 07:03:21;;;;;;;6.00;2.28;;;;;;;50.21;5.70;100041.56;5050698;28;20468;-60
2022/08/01 07:05:47;;;;;;;4.40;2.40;;;;;;;50.26;5.64;100039.19;5049405;28;20407;-59
2022/08/01 07:08:12;;;;;;;4.25;2.25;;;;;;;50.28;5.33;100027.41;5051222;28;20052;-64
2022/08/01 07:10:37;;;;;;;4.78;2.13;;;;;;;49.72;6.03;100030.00;5051151;28;20033;-59
2022/08/01 07:13:03;;;;;;;4.03;2.25;;;;;;;49.23;6.11;100029.75;5051374;28;20029;-59
2022/08/01 07:15:28;;;;;;;2.70;1.83;;;;;;;49.20;6.16;100026.84;5051410;28;20083;-58
2022/08/01 07:17:54;;;;;;;2.40;2.05;;;;;;;50.24;5.34;100033.06;5051495;28;20384;-58
2022/08/01 07:20:19;;;;;;;3.72;2.15;;;;;;;50.96;4.72;100049.19;5050449;28;20029;-58
2022/08/01 07:22:45;;;;;;;3.77;2.27;;;;;;;51.23;4.88;100035.53;5051621;28;20473;-59
2022/08/01 07:25:10;;;;;;;5.97;2.50;;;;;;;51.13;4.99;100036.28;5051575;28;20723;-58
2022/08/01 07:27:37;;;;;;;2.60;2.40;;;;;;;50.57;5.06;100043.97;5049250;28;20357;-59
2022/08/01 07:30:05;;;;;;;5.13;2.60;;;;;;;49.59;5.63;100020.06;5045861;28;20107;-59
2022/08/01 07:32:30;;;;;;;4.78;2.45;;;;;;;49.51;5.56;100025.69;5049744;28;20037;-58
2022/08/01 07:34:56;;;;;;;2.30;2.10;;;;;;;49.07;5.85;100026.22;5050024;28;20029;-59
2022/08/01 07:37:23;;;;;;;4.60;2.15;;;;;;;48.86;5.81;100024.69;5051004;28;20191;-62
2022/08/01 07:39:48;;;;;;;4.28;1.83;;;;;;;49.11;6.08;100007.19;5044048;28;20029;-63
2022/08/01 07:42:14;;;;;;;6.72;2.38;;;;;;;49.37;5.94;100023.44;5050691;28;20037;-59
2022/08/01 07:44:39;;;;;;;2.65;2.10;;;;;;;48.09;6.40;100021.66;5049692;28;20048;-62
2022/08/01 07:47:05;;;;;;;4.88;1.90;;;;;;;47.78;6.09;100018.63;5048648;28;20104;-59
2022/08/01 07:49:31;;;;;;;2.72;1.73;;;;;;;47.32;6.65;100029.75;5046420;28;20179;-59
2022/08/01 07:51:56;;;;;;;3.47;1.88;;;;;;;46.42;7.01;100012.94;5033164;28;20033;-60
2022/08/01 07:54:23;;;;;;;4.97;1.77;;;;;;;46.64;7.07;100021.16;5049777;28;20423;-59
2022/08/01 07:56:50;;;;;;;2.80;2.00;;;;;;;47.08;6.74;100028.75;5050524;28;20037;-58
2022/08/01 07:59:15;;;;;;;1.65;1.55;;;;;;;47.47;6.72;100023.19;5044199;28;20028;-63
2022/08/01 08:01:41;;;;;;;2.88;1.63;;;;;;;47.06;6.48;100025.47;5041050;28;20342;-61
2022/08/01 08:04:07;;;;;;;2.15;1.73;;;;;;;46.01;7.09;100018.69;5049906;28;20389;-61
2022/08/01 08:06:32;;;;;;;3.53;2.05;;;;;;;45.02;7.96;99997.09;5033655;28;20056;-60
2022/08/01 08:08:58;;;;;;;2.13;1.92;;;;;;;44.47;8.57;100023.84;5041483;28;20032;-60
2022/08/01 08:11:24;;;;;;;5.00;2.13;;;;;;;43.86;8.83;100029.72;5054512;28;20080;-60
2022/08/01 08:13:49;;;;;;;7.00;2.00;;;;;;;42.92;9.20;99994.22;5051271;28;20071;-61
2022/08/01 08:16:14;;;;;;;3.90;2.15;;;;;;;42.58;9.77;99999.63;5040655;28;20493;-60
2022/08/01 08:18:40;;;;;;;7.95;2.45;;;;;;;42.54;10.05;100005.09;5052641;28;20100;-61
2022/08/01 08:21:05;;;;;;;3.78;2.28;;;;;;;42.50;10.12;100011.75;5049184;28;20021;-59
2022/08/01 08:26:15;;;;;;;2.40;2.20;;;;;;;40.15;11.58;99986.09;5034236;28;20033;-59
2022/08/01 08:28:40;;;;;;;3.08;2.20;;;;;;;38.53;13.01;100015.06;5048320;28;20028;-60
2022/08/01 08:31:06;;;;;;;5.32;2.40;;;;;;;36.69;14.26;99979.06;5053558;28;20027;-61
2022/08/01 08:33:31;;;;;;;4.57;2.25;;;;;;;35.70;15.57;100006.94;5052188;28;20056;-59
2022/08/01 08:35:57;;;;;;;4.07;2.20;;;;;;;34.32;16.90;100008.66;5045247;28;20037;-59
2022/08/01 08:38:25;;;;;;;5.85;2.45;;;;;;;33.17;17.80;99995.66;5051960;28;20366;-54
2022/08/01 08:40:52;;;;;;;5.82;2.25;;;;;;;32.61;18.42;100005.28;5046843;28;20025;-53
2022/08/01 08:43:18;;;;;;;2.75;1.98;;;;;;;32.34;18.73;99999.84;5042079;28;20132;-60
2022/08/01 08:45:44;;;;;;;5.80;2.15;;;;;;;32.10;19.14;99994.66;5041875;28;20068;-60
2022/08/01 08:48:12;;;;;;;4.10;2.20;;;;;;;31.80;19.30;99973.88;5041818;28;20040;-60
2022/08/01 08:50:38;;;;;;;3.15;2.20;;;;;;;31.86;19.52;99992.22;5040950;28;20074;-60
2022/08/01 08:53:04;;;;;;;2.50;1.67;;;;;;;31.54;19.20;99990.19;5040831;28;20162;-60
2022/08/01 08:55:30;;;;;;;3.28;2.40;;;;;;;31.34;19.50;99982.50;5043929;28;20035;-62
2022/08/01 08:57:57;;;;;;;2.95;2.17;;;;;;;31.34;19.79;99993.56;5051475;28;20033;-62
2022/08/01 09:00:23;;;;;;;4.50;2.20;;;;;;;31.31;19.28;99994.91;5051581;28;20024;-61
2022/08/01 09:02:55;;;;;;;2.08;1.88;;;;;;;31.09;19.63;99986.59;5053195;28;20106;-61
2022/08/01 09:05:27;;;;;;;5.30;1.80;;;;;;;31.10;19.86;99993.78;5052694;28;20074;-61
2022/08/01 09:07:52;;;;;;;3.03;1.75;;;;;;;31.06;19.10;99953.94;5051229;28;20040;-61
2022/08/01 09:10:18;;;;;;;6.60;1.90;;;;;;;31.34;19.26;99999.09;5034117;28;20124;-61
2022/08/01 09:13:06;;;;;;;3.28;1.98;;;;;;;31.55;19.12;99986.31;5032945;28;20053;-61
2022/08/01 09:15:45;;;;;;;2.55;1.80;;;;;;;31.33;18.73;99991.88;5048414;28;20072;-61
2022/08/01 09:18:27;;;;;;;1.70;1.60;;;;;;;31.11;19.03;99994.63;5051787;28;20032;-61
2022/08/01 09:21:16;;;;;;;2.97;1.88;;;;;;;30.58;19.62;99986.69;5049734;28;20056;-61
2022/08/01 09:23:53;;;;;;;2.55;1.83;;;;;;;30.25;19.97;99993.91;5052291;28;20029;-60
2022/08/01 09:26:28;;;;;;;3.83;2.65;;;;;;;29.78;20.43;99991.16;5052487;28;20095;-60
2022/08/01 09:28:54;;;;;;;4.72;2.10;;;;;;;29.44;20.71;99976.44;5043216;28;20039;-62
2022/08/01 09:31:19;;;;;;;4.07;2.00;;;;;;;29.16;21.39;99970.63;5038207;28;20025;-57
2022/08/01 09:33:51;;;;;;;5.18;2.05;;;;;;;29.03;21.28;99984.66;5050260;28;20036;-58
2022/08/01 09:36:18;;;;;;;2.17;1.60;;;;;;;28.63;22.07;99991.75;5046853;28;20029;-58
2022/08/01 09:38:44;;;;;;;4.10;1.92;;;;;;;28.55;22.11;99981.09;5041483;28;20436;-60
2022/08/01 09:41:11;;;;;;;4.65;2.50;;;;;;;28.38;22.62;99957.03;5042862;28;20037;-61
2022/08/01 09:43:37;;;;;;;2.50;2.10;;;;;;;28.38;22.67;99967.22;5042203;28;20067;-60
2022/08/01 09:46:13;;;;;;;2.67;2.03;;;;;;;28.51;22.90;99989.84;5043358;28;20029;-59
2022/08/01 09:48:54;;;;;;;3.92;2.17;;;;;;;28.60;22.95;99979.31;5051650;28;20112;-58
2022/08/01 09:51:28;;;;;;;10.18;3.47;;;;;;;28.99;22.52;99972.47;5047498;28;20037;-63
2022/08/01 09:53:54;;;;;;;5.35;2.95;;;;;;;29.19;23.00;99977.56;5033040;28;20033;-58
2022/08/01 09:56:22;;;;;;;4.85;2.50;;;;;;;29.35;22.14;99975.97;5038876;28;20500;-57
2022/08/01 09:58:58;;;;;;;4.20;2.70;;;;;;;29.54;22.23;99967.50;5039297;28;20051;-60
2022/08/01 10:01:23;;;;;;;5.07;2.70;;;;;;;29.40;22.70;99962.28;5043088;28;20055;-56
2022/08/01 10:04:09;;;;;;;6.78;2.90;;;;;;;29.50;22.51;99967.19;5040221;28;20037;-57
2022/08/01 10:06:36;;;;;;;3.97;2.72;;;;;;;29.34;22.33;99960.50;5040190;28;20049;-53
2022/08/01 10:09:02;;;;;;;7.05;3.65;;;;;;;29.35;22.11;99967.69;5037820;28;20033;-56
2022/08/01 10:11:29;;;;;;;3.45;2.78;;;;;;;29.49;22.14;99968.25;5031998;28;20053;-60
2022/08/01 10:13:57;;;;;;;5.88;3.10;;;;;;;29.67;22.01;99958.94;5032207;28;20056;-55
2022/08/01 10:16:25;;;;;;;3.90;2.42;;;;;;;29.85;21.88;99966.16;5037330;28;20431;-53
2022/08/01 10:18:51;;;;;;;3.25;2.47;;;;;;;29.88;21.29;99956.56;5040861;28;20047;-54
2022/08/01 10:21:18;;;;;;;3.10;2.13;;;;;;;29.84;21.67;99964.47;5039435;28;20064;-55
2022/08/01 10:23:45;;;;;;;4.85;2.45;;;;;;;29.72;21.74;99966.47;5041695;28;20037;-55
2022/08/01 10:26:12;;;;;;;3.45;2.30;;;;;;;29.56;22.00;99963.44;5040626;28;20025;-54
2022/08/01 10:28:38;;;;;;;4.22;2.30;;;;;;;29.32;21.83;99960.72;5039964;28;20302;-52
2022/08/01 10:31:04;;;;;;;2.92;2.03;;;;;;;29.28;22.28;99953.19;5041698;28;20024;-52
2022/08/01 10:33:30;;;;;;;4.82;2.30;;;;;;;29.18;22.14;99956.59;5051493;28;20033;-55
2022/08/01 10:35:57;;;;;;;5.45;2.40;;;;;;;29.16;22.54;99967.00;5051615;28;20037;-55
2022/08/01 10:38:23;;;;;;;3.83;2.42;;;;;;;28.99;22.32;99933.88;5044151;28;20065;-52
2022/08/01 10:40:50;;;;;;;4.07;2.30;;;;;;;29.15;22.45;99959.81;5031496;28;20442;-55
2022/08/01 10:43:16;;;;;;;5.05;2.20;;;;;;;29.29;22.38;99969.50;5031637;28;20108;-60
2022/08/01 11:00:22;;;;;;;4.33;2.13;;;;;;;30.16;21.49;99957.59;5040841;28;20061;-59
2022/08/01 11:03:03;;;;;;;4.20;2.30;;;;;;;30.07;21.04;99943.38;5041431;28;20060;-59
2022/08/01 11:05:32;;;;;;;3.88;2.22;;;;;;;29.87;21.35;99955.69;5040676;28;20037;-69
2022/08/01 11:08:02;;;;;;;5.68;2.25;;;;;;;29.56;21.37;99921.22;5039974;28;20534;-56
2022/08/01 11:10:42;;;;;;;5.93;2.20;;;;;;;29.69;21.86;99948.50;5039783;28;20033;-61
2022/08/01 11:13:10;;;;;;;3.83;2.00;;;;;;;29.52;22.09;99942.94;5037472;28;20489;-60
2022/08/01 11:15:37;;;;;;;3.47;2.00;;;;;;;29.62;22.09;99942.31;5040476;28;20056;-56
2022/08/01 11:18:24;;;;;;;4.68;2.33;;;;;;;29.77;21.89;99945.31;5039523;28;20088;-57
2022/08/01 11:20:58;;;;;;;3.25;2.38;;;;;;;30.02;21.45;99937.78;5040093;28;20119;-55
2022/08/01 11:23:26;;;;;;;3.40;2.28;;;;;;;29.55;21.52;99909.34;5039768;28;20029;-63
2022/08/01 11:25:53;;;;;;;4.10;2.50;;;;;;;29.50;21.58;99931.31;5036235;28;20033;-57
2022/08/01 11:28:23;;;;;;;3.92;2.45;;;;;;;29.32;21.76;99932.34;5050039;28;20045;-59
2022/08/01 11:30:50;;;;;;;5.00;2.10;;;;;;;29.03;22.03;99927.63;5050342;28;20118;-57
2022/08/01 11:33:18;;;;;;;3.95;2.17;;;;;;;28.92;22.68;99925.72;5050996;28;20441;-58
2022/08/01 11:36:11;;;;;;;3.72;2.40;;;;;;;29.14;22.59;99927.84;5045928;28;20029;-56
2022/08/01 11:38:40;;;;;;;5.00;2.72;;;;;;;29.02;22.17;99916.84;5050692;28;20037;-58
2022/08/01 11:41:13;;;;;;;2.97;2.28;;;;;;;29.18;22.08;99923.53;5048831;28;20028;-55
2022/08/01 11:43:58;;;;;;;5.70;2.45;;;;;;;29.48;21.74;99919.72;5030069;28;20103;-57
2022/08/01 11:46:43;;;;;;;;;;;;;;;29.96;20.99;99920.25;5030219;28;20050;-53
2022/08/01 11:49:36;;;;;;;3.83;2.20;;;;;;;29.86;21.28;99917.31;5030537;28;19913;-59
2022/08/01 11:52:03;;;;;;;7.80;2.47;;;;;;;29.65;21.86;99919.72;5040053;28;20071;-69
2022/08/01 11:54:34;;;;;;;4.28;2.17;;;;;;;29.51;22.08;99911.75;5031050;28;20094;-58